<?xml version="1.0" encoding="UTF-8" standalone="no" ?>
<gpx xmlns="http://www.topografix.com/GPX/1/1" xmlns:xsi="http://www.w3.org/2001/XMLSchema-instance" xsi:schemaLocation="http://www.topografix.com/GPX/1/1 http://www.topografix.com/GPX/1/1/gpx.xsd" version="1.1" creator="VisuGPX - https://www.visugpx.com">
  <metadata>
    <name>29-11 Montbrun - Bellefont - Charasson</name>
  </metadata>
  <trk>
    <name><![CDATA[29-11 Montbrun - Bellefont - Charasson_3]]></name>
    <extensions>
      <line xmlns="http://www.topografix.com/GPX/gpx_style/0/2">
        <color>ff0000</color>
        <width>4</width>
        <dasharray>8</dasharray>
      </line>
    </extensions>
    <trkseg>
      <trkpt lat="45.3401" lon="5.88113">
        <ele>1846.349365</ele>
        <time>2010-10-30T10:12:44Z</time>
      </trkpt>
      <trkpt lat="45.34017" lon="5.88112">
        <ele>1845.387939</ele>
        <time>2010-10-30T10:12:51Z</time>
      </trkpt>
      <trkpt lat="45.34022" lon="5.88112">
        <ele>1844.907227</ele>
        <time>2010-10-30T10:12:57Z</time>
      </trkpt>
      <trkpt lat="45.34027" lon="5.88113">
        <ele>1845.387939</ele>
        <time>2010-10-30T10:13:03Z</time>
      </trkpt>
      <trkpt lat="45.3403" lon="5.88114">
        <ele>1844.426514</ele>
        <time>2010-10-30T10:13:09Z</time>
      </trkpt>
      <trkpt lat="45.34034" lon="5.88119">
        <ele>1844.907227</ele>
        <time>2010-10-30T10:13:13Z</time>
      </trkpt>
      <trkpt lat="45.34035" lon="5.88124">
        <ele>1845.387939</ele>
        <time>2010-10-30T10:13:21Z</time>
      </trkpt>
      <trkpt lat="45.34035" lon="5.88124">
        <ele>1846.829834</ele>
        <time>2010-10-30T10:13:35Z</time>
      </trkpt>
      <trkpt lat="45.34038" lon="5.88125">
        <ele>1847.310547</ele>
        <time>2010-10-30T10:13:43Z</time>
      </trkpt>
      <trkpt lat="45.34038" lon="5.88125">
        <ele>1847.79126</ele>
        <time>2010-10-30T10:13:49Z</time>
      </trkpt>
      <trkpt lat="45.34043" lon="5.88124">
        <ele>1846.349365</ele>
        <time>2010-10-30T10:13:54Z</time>
      </trkpt>
      <trkpt lat="45.34047" lon="5.88122">
        <ele>1843.946045</ele>
        <time>2010-10-30T10:14:00Z</time>
      </trkpt>
      <trkpt lat="45.3405" lon="5.88121">
        <ele>1842.984619</ele>
        <time>2010-10-30T10:14:05Z</time>
      </trkpt>
      <trkpt lat="45.34052" lon="5.88122">
        <ele>1843.946045</ele>
        <time>2010-10-30T10:14:09Z</time>
      </trkpt>
      <trkpt lat="45.34054" lon="5.88122">
        <ele>1843.946045</ele>
        <time>2010-10-30T10:14:15Z</time>
      </trkpt>
      <trkpt lat="45.34057" lon="5.88121">
        <ele>1843.465332</ele>
        <time>2010-10-30T10:14:20Z</time>
      </trkpt>
      <trkpt lat="45.3406" lon="5.8812">
        <ele>1841.542725</ele>
        <time>2010-10-30T10:14:26Z</time>
      </trkpt>
      <trkpt lat="45.34063" lon="5.88118">
        <ele>1840.581299</ele>
        <time>2010-10-30T10:14:32Z</time>
      </trkpt>
      <trkpt lat="45.34066" lon="5.88112">
        <ele>1837.69751</ele>
        <time>2010-10-30T10:14:39Z</time>
      </trkpt>
      <trkpt lat="45.34068" lon="5.88108">
        <ele>1834.332764</ele>
        <time>2010-10-30T10:14:44Z</time>
      </trkpt>
      <trkpt lat="45.34071" lon="5.88107">
        <ele>1832.410156</ele>
        <time>2010-10-30T10:14:49Z</time>
      </trkpt>
      <trkpt lat="45.34073" lon="5.88107">
        <ele>1833.371338</ele>
        <time>2010-10-30T10:14:55Z</time>
      </trkpt>
      <trkpt lat="45.34074" lon="5.88109">
        <ele>1833.852051</ele>
        <time>2010-10-30T10:14:59Z</time>
      </trkpt>
      <trkpt lat="45.34077" lon="5.88109">
        <ele>1833.852051</ele>
        <time>2010-10-30T10:15:04Z</time>
      </trkpt>
      <trkpt lat="45.34083" lon="5.88111">
        <ele>1834.813477</ele>
        <time>2010-10-30T10:15:10Z</time>
      </trkpt>
      <trkpt lat="45.34088" lon="5.88114">
        <ele>1835.293945</ele>
        <time>2010-10-30T10:15:16Z</time>
      </trkpt>
      <trkpt lat="45.34091" lon="5.8812">
        <ele>1836.736084</ele>
        <time>2010-10-30T10:15:23Z</time>
      </trkpt>
      <trkpt lat="45.34095" lon="5.88125">
        <ele>1836.736084</ele>
        <time>2010-10-30T10:15:28Z</time>
      </trkpt>
      <trkpt lat="45.34097" lon="5.88131">
        <ele>1839.139404</ele>
        <time>2010-10-30T10:15:34Z</time>
      </trkpt>
      <trkpt lat="45.34098" lon="5.88134">
        <ele>1839.139404</ele>
        <time>2010-10-30T10:15:37Z</time>
      </trkpt>
      <trkpt lat="45.34101" lon="5.88139">
        <ele>1839.620117</ele>
        <time>2010-10-30T10:15:43Z</time>
      </trkpt>
      <trkpt lat="45.34103" lon="5.88147">
        <ele>1840.10083</ele>
        <time>2010-10-30T10:15:50Z</time>
      </trkpt>
      <trkpt lat="45.34106" lon="5.88151">
        <ele>1841.062012</ele>
        <time>2010-10-30T10:15:56Z</time>
      </trkpt>
      <trkpt lat="45.34106" lon="5.88153">
        <ele>1841.062012</ele>
        <time>2010-10-30T10:16:03Z</time>
      </trkpt>
      <trkpt lat="45.3411" lon="5.88153">
        <ele>1841.062012</ele>
        <time>2010-10-30T10:16:09Z</time>
      </trkpt>
      <trkpt lat="45.34111" lon="5.88157">
        <ele>1841.542725</ele>
        <time>2010-10-30T10:16:14Z</time>
      </trkpt>
      <trkpt lat="45.34112" lon="5.88159">
        <ele>1842.984619</ele>
        <time>2010-10-30T10:16:46Z</time>
      </trkpt>
      <trkpt lat="45.34114" lon="5.88162">
        <ele>1842.984619</ele>
        <time>2010-10-30T10:16:59Z</time>
      </trkpt>
      <trkpt lat="45.34115" lon="5.88164">
        <ele>1843.465332</ele>
        <time>2010-10-30T10:17:03Z</time>
      </trkpt>
      <trkpt lat="45.34117" lon="5.88165">
        <ele>1843.465332</ele>
        <time>2010-10-30T10:17:07Z</time>
      </trkpt>
      <trkpt lat="45.34119" lon="5.88166">
        <ele>1844.426514</ele>
        <time>2010-10-30T10:17:13Z</time>
      </trkpt>
      <trkpt lat="45.3412" lon="5.88168">
        <ele>1844.907227</ele>
        <time>2010-10-30T10:17:19Z</time>
      </trkpt>
      <trkpt lat="45.34121" lon="5.88171">
        <ele>1844.907227</ele>
        <time>2010-10-30T10:17:24Z</time>
      </trkpt>
      <trkpt lat="45.34123" lon="5.88175">
        <ele>1844.907227</ele>
        <time>2010-10-30T10:17:29Z</time>
      </trkpt>
      <trkpt lat="45.34124" lon="5.88179">
        <ele>1844.426514</ele>
        <time>2010-10-30T10:17:34Z</time>
      </trkpt>
      <trkpt lat="45.34127" lon="5.88181">
        <ele>1844.907227</ele>
        <time>2010-10-30T10:17:40Z</time>
      </trkpt>
      <trkpt lat="45.34131" lon="5.88184">
        <ele>1845.387939</ele>
        <time>2010-10-30T10:17:46Z</time>
      </trkpt>
      <trkpt lat="45.34134" lon="5.88189">
        <ele>1846.349365</ele>
        <time>2010-10-30T10:17:54Z</time>
      </trkpt>
      <trkpt lat="45.34135" lon="5.88189">
        <ele>1846.829834</ele>
        <time>2010-10-30T10:18:01Z</time>
      </trkpt>
      <trkpt lat="45.34134" lon="5.88188">
        <ele>1846.829834</ele>
        <time>2010-10-30T10:18:21Z</time>
      </trkpt>
      <trkpt lat="45.34135" lon="5.88189">
        <ele>1846.349365</ele>
        <time>2010-10-30T10:18:29Z</time>
      </trkpt>
      <trkpt lat="45.34139" lon="5.88188">
        <ele>1846.829834</ele>
        <time>2010-10-30T10:18:34Z</time>
      </trkpt>
      <trkpt lat="45.34143" lon="5.88187">
        <ele>1845.868652</ele>
        <time>2010-10-30T10:18:38Z</time>
      </trkpt>
      <trkpt lat="45.34148" lon="5.88187">
        <ele>1845.387939</ele>
        <time>2010-10-30T10:18:43Z</time>
      </trkpt>
      <trkpt lat="45.34151" lon="5.88187">
        <ele>1845.868652</ele>
        <time>2010-10-30T10:18:47Z</time>
      </trkpt>
      <trkpt lat="45.34152" lon="5.88187">
        <ele>1846.349365</ele>
        <time>2010-10-30T10:18:53Z</time>
      </trkpt>
      <trkpt lat="45.34155" lon="5.88187">
        <ele>1847.310547</ele>
        <time>2010-10-30T10:18:58Z</time>
      </trkpt>
      <trkpt lat="45.34157" lon="5.88189">
        <ele>1847.310547</ele>
        <time>2010-10-30T10:19:02Z</time>
      </trkpt>
      <trkpt lat="45.3416" lon="5.88189">
        <ele>1848.271729</ele>
        <time>2010-10-30T10:19:08Z</time>
      </trkpt>
      <trkpt lat="45.34163" lon="5.8819">
        <ele>1848.271729</ele>
        <time>2010-10-30T10:19:13Z</time>
      </trkpt>
      <trkpt lat="45.34167" lon="5.88193">
        <ele>1848.271729</ele>
        <time>2010-10-30T10:19:18Z</time>
      </trkpt>
      <trkpt lat="45.3417" lon="5.88198">
        <ele>1849.713867</ele>
        <time>2010-10-30T10:19:22Z</time>
      </trkpt>
      <trkpt lat="45.34173" lon="5.88203">
        <ele>1850.675049</ele>
        <time>2010-10-30T10:19:28Z</time>
      </trkpt>
      <trkpt lat="45.34175" lon="5.88206">
        <ele>1851.155762</ele>
        <time>2010-10-30T10:19:32Z</time>
      </trkpt>
      <trkpt lat="45.34177" lon="5.88211">
        <ele>1851.636475</ele>
        <time>2010-10-30T10:19:37Z</time>
      </trkpt>
      <trkpt lat="45.34177" lon="5.88212">
        <ele>1851.636475</ele>
        <time>2010-10-30T10:19:42Z</time>
      </trkpt>
      <trkpt lat="45.34177" lon="5.88214">
        <ele>1854.520508</ele>
        <time>2010-10-30T10:19:55Z</time>
      </trkpt>
      <trkpt lat="45.34177" lon="5.88213">
        <ele>1855.481934</ele>
        <time>2010-10-30T10:20:10Z</time>
      </trkpt>
      <trkpt lat="45.34179" lon="5.8821">
        <ele>1855.481934</ele>
        <time>2010-10-30T10:20:24Z</time>
      </trkpt>
      <trkpt lat="45.3418" lon="5.88216">
        <ele>1857.404541</ele>
        <time>2010-10-30T10:20:31Z</time>
      </trkpt>
      <trkpt lat="45.34183" lon="5.88221">
        <ele>1859.327148</ele>
        <time>2010-10-30T10:20:47Z</time>
      </trkpt>
      <trkpt lat="45.34181" lon="5.88219">
        <ele>1855.001221</ele>
        <time>2010-10-30T10:21:13Z</time>
      </trkpt>
      <trkpt lat="45.34183" lon="5.88219">
        <ele>1854.520508</ele>
        <time>2010-10-30T10:21:23Z</time>
      </trkpt>
      <trkpt lat="45.3418" lon="5.88217">
        <ele>1868.94043</ele>
        <time>2010-10-30T10:21:46Z</time>
      </trkpt>
      <trkpt lat="45.34183" lon="5.88204">
        <ele>1869.421143</ele>
        <time>2010-10-30T10:22:06Z</time>
      </trkpt>
      <trkpt lat="45.3418" lon="5.88209">
        <ele>1875.188721</ele>
        <time>2010-10-30T10:22:17Z</time>
      </trkpt>
      <trkpt lat="45.34178" lon="5.88207">
        <ele>1875.669434</ele>
        <time>2010-10-30T10:22:22Z</time>
      </trkpt>
      <trkpt lat="45.3418" lon="5.88205">
        <ele>1874.227539</ele>
        <time>2010-10-30T10:22:31Z</time>
      </trkpt>
      <trkpt lat="45.3418" lon="5.88204">
        <ele>1867.017578</ele>
        <time>2010-10-30T10:22:41Z</time>
      </trkpt>
      <trkpt lat="45.3418" lon="5.88201">
        <ele>1866.536865</ele>
        <time>2010-10-30T10:22:45Z</time>
      </trkpt>
      <trkpt lat="45.34178" lon="5.88205">
        <ele>1869.901611</ele>
        <time>2010-10-30T10:22:56Z</time>
      </trkpt>
      <trkpt lat="45.34181" lon="5.88204">
        <ele>1865.094971</ele>
        <time>2010-10-30T10:23:15Z</time>
      </trkpt>
      <trkpt lat="45.34187" lon="5.882">
        <ele>1859.807617</ele>
        <time>2010-10-30T10:23:25Z</time>
      </trkpt>
      <trkpt lat="45.34188" lon="5.88197">
        <ele>1856.443115</ele>
        <time>2010-10-30T10:23:30Z</time>
      </trkpt>
      <trkpt lat="45.34197" lon="5.88205">
        <ele>1862.69165</ele>
        <time>2010-10-30T10:23:43Z</time>
      </trkpt>
      <trkpt lat="45.34202" lon="5.88207">
        <ele>1862.69165</ele>
        <time>2010-10-30T10:23:49Z</time>
      </trkpt>
      <trkpt lat="45.34205" lon="5.88203">
        <ele>1859.327148</ele>
        <time>2010-10-30T10:23:53Z</time>
      </trkpt>
      <trkpt lat="45.34207" lon="5.88195">
        <ele>1854.040039</ele>
        <time>2010-10-30T10:23:56Z</time>
      </trkpt>
      <trkpt lat="45.34208" lon="5.88191">
        <ele>1850.675049</ele>
        <time>2010-10-30T10:23:58Z</time>
      </trkpt>
      <trkpt lat="45.3421" lon="5.88176">
        <ele>1838.658936</ele>
        <time>2010-10-30T10:24:10Z</time>
      </trkpt>
      <trkpt lat="45.34214" lon="5.88182">
        <ele>1840.10083</ele>
        <time>2010-10-30T10:24:22Z</time>
      </trkpt>
      <trkpt lat="45.34216" lon="5.88179">
        <ele>1838.178223</ele>
        <time>2010-10-30T10:24:28Z</time>
      </trkpt>
      <trkpt lat="45.34219" lon="5.88178">
        <ele>1837.216797</ele>
        <time>2010-10-30T10:24:33Z</time>
      </trkpt>
      <trkpt lat="45.34222" lon="5.88177">
        <ele>1836.255615</ele>
        <time>2010-10-30T10:24:38Z</time>
      </trkpt>
      <trkpt lat="45.34224" lon="5.88178">
        <ele>1836.736084</ele>
        <time>2010-10-30T10:24:43Z</time>
      </trkpt>
      <trkpt lat="45.34226" lon="5.88177">
        <ele>1835.774658</ele>
        <time>2010-10-30T10:24:48Z</time>
      </trkpt>
      <trkpt lat="45.34229" lon="5.88178">
        <ele>1835.293945</ele>
        <time>2010-10-30T10:24:53Z</time>
      </trkpt>
      <trkpt lat="45.34231" lon="5.8818">
        <ele>1835.293945</ele>
        <time>2010-10-30T10:24:58Z</time>
      </trkpt>
      <trkpt lat="45.34232" lon="5.8818">
        <ele>1834.813477</ele>
        <time>2010-10-30T10:25:02Z</time>
      </trkpt>
      <trkpt lat="45.34234" lon="5.88177">
        <ele>1833.371338</ele>
        <time>2010-10-30T10:25:08Z</time>
      </trkpt>
      <trkpt lat="45.34236" lon="5.88174">
        <ele>1832.890625</ele>
        <time>2010-10-30T10:25:12Z</time>
      </trkpt>
      <trkpt lat="45.34238" lon="5.88174">
        <ele>1834.332764</ele>
        <time>2010-10-30T10:25:17Z</time>
      </trkpt>
      <trkpt lat="45.34241" lon="5.88173">
        <ele>1836.736084</ele>
        <time>2010-10-30T10:25:23Z</time>
      </trkpt>
      <trkpt lat="45.34245" lon="5.88179">
        <ele>1838.658936</ele>
        <time>2010-10-30T10:25:30Z</time>
      </trkpt>
      <trkpt lat="45.34246" lon="5.8818">
        <ele>1837.69751</ele>
        <time>2010-10-30T10:25:35Z</time>
      </trkpt>
      <trkpt lat="45.3425" lon="5.88183">
        <ele>1837.216797</ele>
        <time>2010-10-30T10:25:40Z</time>
      </trkpt>
      <trkpt lat="45.34252" lon="5.88182">
        <ele>1836.255615</ele>
        <time>2010-10-30T10:25:46Z</time>
      </trkpt>
      <trkpt lat="45.34255" lon="5.88183">
        <ele>1835.774658</ele>
        <time>2010-10-30T10:25:51Z</time>
      </trkpt>
      <trkpt lat="45.34258" lon="5.88185">
        <ele>1835.293945</ele>
        <time>2010-10-30T10:25:56Z</time>
      </trkpt>
      <trkpt lat="45.34262" lon="5.88187">
        <ele>1834.813477</ele>
        <time>2010-10-30T10:26:01Z</time>
      </trkpt>
      <trkpt lat="45.34263" lon="5.88191">
        <ele>1834.332764</ele>
        <time>2010-10-30T10:26:10Z</time>
      </trkpt>
      <trkpt lat="45.34264" lon="5.88191">
        <ele>1833.852051</ele>
        <time>2010-10-30T10:26:16Z</time>
      </trkpt>
      <trkpt lat="45.34268" lon="5.88194">
        <ele>1833.371338</ele>
        <time>2010-10-30T10:26:23Z</time>
      </trkpt>
      <trkpt lat="45.34271" lon="5.88195">
        <ele>1832.890625</ele>
        <time>2010-10-30T10:26:29Z</time>
      </trkpt>
      <trkpt lat="45.34273" lon="5.88197">
        <ele>1831.929443</ele>
        <time>2010-10-30T10:26:33Z</time>
      </trkpt>
      <trkpt lat="45.34276" lon="5.88198">
        <ele>1833.371338</ele>
        <time>2010-10-30T10:26:38Z</time>
      </trkpt>
      <trkpt lat="45.34276" lon="5.882">
        <ele>1832.890625</ele>
        <time>2010-10-30T10:26:51Z</time>
      </trkpt>
      <trkpt lat="45.34276" lon="5.88207">
        <ele>1833.371338</ele>
        <time>2010-10-30T10:26:57Z</time>
      </trkpt>
      <trkpt lat="45.34277" lon="5.88209">
        <ele>1832.890625</ele>
        <time>2010-10-30T10:27:02Z</time>
      </trkpt>
      <trkpt lat="45.34278" lon="5.88209">
        <ele>1831.44873</ele>
        <time>2010-10-30T10:27:07Z</time>
      </trkpt>
      <trkpt lat="45.34279" lon="5.88211">
        <ele>1830.968262</ele>
        <time>2010-10-30T10:27:11Z</time>
      </trkpt>
      <trkpt lat="45.3428" lon="5.88212">
        <ele>1830.006836</ele>
        <time>2010-10-30T10:27:15Z</time>
      </trkpt>
      <trkpt lat="45.34282" lon="5.88214">
        <ele>1829.526123</ele>
        <time>2010-10-30T10:27:21Z</time>
      </trkpt>
      <trkpt lat="45.34285" lon="5.88219">
        <ele>1830.487549</ele>
        <time>2010-10-30T10:27:26Z</time>
      </trkpt>
      <trkpt lat="45.34285" lon="5.88223">
        <ele>1830.006836</ele>
        <time>2010-10-30T10:27:32Z</time>
      </trkpt>
      <trkpt lat="45.34286" lon="5.88224">
        <ele>1829.526123</ele>
        <time>2010-10-30T10:27:38Z</time>
      </trkpt>
      <trkpt lat="45.34285" lon="5.88225">
        <ele>1829.04541</ele>
        <time>2010-10-30T10:27:43Z</time>
      </trkpt>
      <trkpt lat="45.34286" lon="5.88226">
        <ele>1829.04541</ele>
        <time>2010-10-30T10:27:48Z</time>
      </trkpt>
      <trkpt lat="45.34287" lon="5.88229">
        <ele>1829.526123</ele>
        <time>2010-10-30T10:27:52Z</time>
      </trkpt>
      <trkpt lat="45.34286" lon="5.8823">
        <ele>1829.526123</ele>
        <time>2010-10-30T10:28:03Z</time>
      </trkpt>
      <trkpt lat="45.34283" lon="5.88226">
        <ele>1829.526123</ele>
        <time>2010-10-30T10:28:10Z</time>
      </trkpt>
      <trkpt lat="45.34282" lon="5.88224">
        <ele>1828.564941</ele>
        <time>2010-10-30T10:28:15Z</time>
      </trkpt>
      <trkpt lat="45.34279" lon="5.88222">
        <ele>1828.084229</ele>
        <time>2010-10-30T10:28:21Z</time>
      </trkpt>
      <trkpt lat="45.34278" lon="5.8822">
        <ele>1827.603516</ele>
        <time>2010-10-30T10:28:30Z</time>
      </trkpt>
      <trkpt lat="45.3428" lon="5.88219">
        <ele>1824.239014</ele>
        <time>2010-10-30T10:28:51Z</time>
      </trkpt>
      <trkpt lat="45.34281" lon="5.88221">
        <ele>1824.239014</ele>
        <time>2010-10-30T10:28:56Z</time>
      </trkpt>
      <trkpt lat="45.34282" lon="5.88226">
        <ele>1825.200195</ele>
        <time>2010-10-30T10:29:01Z</time>
      </trkpt>
      <trkpt lat="45.34283" lon="5.88228">
        <ele>1825.200195</ele>
        <time>2010-10-30T10:29:05Z</time>
      </trkpt>
      <trkpt lat="45.34286" lon="5.88233">
        <ele>1827.123047</ele>
        <time>2010-10-30T10:29:12Z</time>
      </trkpt>
      <trkpt lat="45.34289" lon="5.88234">
        <ele>1826.161621</ele>
        <time>2010-10-30T10:29:16Z</time>
      </trkpt>
      <trkpt lat="45.3429" lon="5.88235">
        <ele>1825.680908</ele>
        <time>2010-10-30T10:29:20Z</time>
      </trkpt>
      <trkpt lat="45.34293" lon="5.88239">
        <ele>1825.200195</ele>
        <time>2010-10-30T10:29:25Z</time>
      </trkpt>
      <trkpt lat="45.34296" lon="5.88241">
        <ele>1824.239014</ele>
        <time>2010-10-30T10:29:30Z</time>
      </trkpt>
      <trkpt lat="45.34297" lon="5.88248">
        <ele>1827.603516</ele>
        <time>2010-10-30T10:29:35Z</time>
      </trkpt>
      <trkpt lat="45.34298" lon="5.8825">
        <ele>1829.04541</ele>
        <time>2010-10-30T10:29:39Z</time>
      </trkpt>
      <trkpt lat="45.34299" lon="5.8825">
        <ele>1829.04541</ele>
        <time>2010-10-30T10:29:44Z</time>
      </trkpt>
      <trkpt lat="45.34301" lon="5.8825">
        <ele>1829.04541</ele>
        <time>2010-10-30T10:29:48Z</time>
      </trkpt>
      <trkpt lat="45.34301" lon="5.88252">
        <ele>1828.564941</ele>
        <time>2010-10-30T10:29:52Z</time>
      </trkpt>
      <trkpt lat="45.34302" lon="5.88252">
        <ele>1828.564941</ele>
        <time>2010-10-30T10:29:56Z</time>
      </trkpt>
      <trkpt lat="45.34304" lon="5.88252">
        <ele>1828.564941</ele>
        <time>2010-10-30T10:30:02Z</time>
      </trkpt>
      <trkpt lat="45.34305" lon="5.88251">
        <ele>1825.680908</ele>
        <time>2010-10-30T10:30:14Z</time>
      </trkpt>
      <trkpt lat="45.34302" lon="5.88247">
        <ele>1830.487549</ele>
        <time>2010-10-30T10:30:32Z</time>
      </trkpt>
      <trkpt lat="45.34303" lon="5.8825">
        <ele>1841.062012</ele>
        <time>2010-10-30T10:30:37Z</time>
      </trkpt>
      <trkpt lat="45.34303" lon="5.88253">
        <ele>1842.984619</ele>
        <time>2010-10-30T10:30:42Z</time>
      </trkpt>
      <trkpt lat="45.34304" lon="5.88254">
        <ele>1845.868652</ele>
        <time>2010-10-30T10:30:48Z</time>
      </trkpt>
      <trkpt lat="45.34299" lon="5.88255">
        <ele>1852.117188</ele>
        <time>2010-10-30T10:31:26Z</time>
      </trkpt>
      <trkpt lat="45.34301" lon="5.88256">
        <ele>1852.5979</ele>
        <time>2010-10-30T10:31:33Z</time>
      </trkpt>
      <trkpt lat="45.34301" lon="5.88256">
        <ele>1850.675049</ele>
        <time>2010-10-30T10:31:41Z</time>
      </trkpt>
      <trkpt lat="45.34298" lon="5.88252">
        <ele>1852.117188</ele>
        <time>2010-10-30T10:31:59Z</time>
      </trkpt>
      <trkpt lat="45.34302" lon="5.88254">
        <ele>1855.481934</ele>
        <time>2010-10-30T10:32:10Z</time>
      </trkpt>
      <trkpt lat="45.34305" lon="5.88258">
        <ele>1856.923828</ele>
        <time>2010-10-30T10:32:29Z</time>
      </trkpt>
      <trkpt lat="45.34309" lon="5.88259">
        <ele>1853.559326</ele>
        <time>2010-10-30T10:32:36Z</time>
      </trkpt>
      <trkpt lat="45.34311" lon="5.88261">
        <ele>1849.713867</ele>
        <time>2010-10-30T10:32:54Z</time>
      </trkpt>
      <trkpt lat="45.34312" lon="5.8826">
        <ele>1848.271729</ele>
        <time>2010-10-30T10:33:01Z</time>
      </trkpt>
      <trkpt lat="45.34312" lon="5.88261">
        <ele>1848.271729</ele>
        <time>2010-10-30T10:33:10Z</time>
      </trkpt>
      <trkpt lat="45.34313" lon="5.88263">
        <ele>1850.19458</ele>
        <time>2010-10-30T10:33:14Z</time>
      </trkpt>
      <trkpt lat="45.34315" lon="5.88264">
        <ele>1849.233154</ele>
        <time>2010-10-30T10:33:19Z</time>
      </trkpt>
      <trkpt lat="45.34315" lon="5.88266">
        <ele>1847.310547</ele>
        <time>2010-10-30T10:33:29Z</time>
      </trkpt>
      <trkpt lat="45.34317" lon="5.88268">
        <ele>1845.868652</ele>
        <time>2010-10-30T10:33:39Z</time>
      </trkpt>
      <trkpt lat="45.34317" lon="5.88269">
        <ele>1847.310547</ele>
        <time>2010-10-30T10:33:48Z</time>
      </trkpt>
      <trkpt lat="45.34316" lon="5.88277">
        <ele>1851.636475</ele>
        <time>2010-10-30T10:34:04Z</time>
      </trkpt>
      <trkpt lat="45.34316" lon="5.88281">
        <ele>1853.078613</ele>
        <time>2010-10-30T10:34:08Z</time>
      </trkpt>
      <trkpt lat="45.34317" lon="5.88281">
        <ele>1853.078613</ele>
        <time>2010-10-30T10:34:11Z</time>
      </trkpt>
      <trkpt lat="45.3432" lon="5.88274">
        <ele>1849.233154</ele>
        <time>2010-10-30T10:34:19Z</time>
      </trkpt>
      <trkpt lat="45.34322" lon="5.88268">
        <ele>1848.752441</ele>
        <time>2010-10-30T10:34:24Z</time>
      </trkpt>
      <trkpt lat="45.34323" lon="5.88263">
        <ele>1849.233154</ele>
        <time>2010-10-30T10:34:30Z</time>
      </trkpt>
      <trkpt lat="45.34323" lon="5.88261">
        <ele>1848.752441</ele>
        <time>2010-10-30T10:34:36Z</time>
      </trkpt>
      <trkpt lat="45.34322" lon="5.8826">
        <ele>1849.233154</ele>
        <time>2010-10-30T10:34:40Z</time>
      </trkpt>
      <trkpt lat="45.34321" lon="5.88258">
        <ele>1849.233154</ele>
        <time>2010-10-30T10:34:47Z</time>
      </trkpt>
      <trkpt lat="45.3432" lon="5.88257">
        <ele>1851.155762</ele>
        <time>2010-10-30T10:34:52Z</time>
      </trkpt>
      <trkpt lat="45.34317" lon="5.88254">
        <ele>1851.636475</ele>
        <time>2010-10-30T10:34:58Z</time>
      </trkpt>
      <trkpt lat="45.34316" lon="5.88253">
        <ele>1852.5979</ele>
        <time>2010-10-30T10:35:04Z</time>
      </trkpt>
      <trkpt lat="45.34315" lon="5.88251">
        <ele>1853.078613</ele>
        <time>2010-10-30T10:35:10Z</time>
      </trkpt>
      <trkpt lat="45.34314" lon="5.88246">
        <ele>1851.636475</ele>
        <time>2010-10-30T10:35:16Z</time>
      </trkpt>
      <trkpt lat="45.34316" lon="5.88241">
        <ele>1855.001221</ele>
        <time>2010-10-30T10:35:23Z</time>
      </trkpt>
      <trkpt lat="45.34318" lon="5.88241">
        <ele>1855.962402</ele>
        <time>2010-10-30T10:35:28Z</time>
      </trkpt>
      <trkpt lat="45.3432" lon="5.8824">
        <ele>1856.923828</ele>
        <time>2010-10-30T10:35:33Z</time>
      </trkpt>
      <trkpt lat="45.34321" lon="5.88237">
        <ele>1858.365723</ele>
        <time>2010-10-30T10:35:39Z</time>
      </trkpt>
      <trkpt lat="45.34321" lon="5.88235">
        <ele>1859.327148</ele>
        <time>2010-10-30T10:35:46Z</time>
      </trkpt>
      <trkpt lat="45.3432" lon="5.88232">
        <ele>1858.846436</ele>
        <time>2010-10-30T10:35:52Z</time>
      </trkpt>
      <trkpt lat="45.34319" lon="5.8823">
        <ele>1867.017578</ele>
        <time>2010-10-30T10:36:01Z</time>
      </trkpt>
      <trkpt lat="45.3432" lon="5.88228">
        <ele>1868.459717</ele>
        <time>2010-10-30T10:36:06Z</time>
      </trkpt>
      <trkpt lat="45.34321" lon="5.88224">
        <ele>1869.901611</ele>
        <time>2010-10-30T10:36:14Z</time>
      </trkpt>
      <trkpt lat="45.34322" lon="5.88222">
        <ele>1871.343506</ele>
        <time>2010-10-30T10:36:19Z</time>
      </trkpt>
      <trkpt lat="45.34325" lon="5.88219">
        <ele>1874.227539</ele>
        <time>2010-10-30T10:36:24Z</time>
      </trkpt>
      <trkpt lat="45.34327" lon="5.88219">
        <ele>1872.785645</ele>
        <time>2010-10-30T10:36:32Z</time>
      </trkpt>
      <trkpt lat="45.34329" lon="5.88218">
        <ele>1871.343506</ele>
        <time>2010-10-30T10:36:40Z</time>
      </trkpt>
      <trkpt lat="45.34332" lon="5.8822">
        <ele>1871.343506</ele>
        <time>2010-10-30T10:36:46Z</time>
      </trkpt>
      <trkpt lat="45.34334" lon="5.88221">
        <ele>1872.304932</ele>
        <time>2010-10-30T10:36:51Z</time>
      </trkpt>
      <trkpt lat="45.34336" lon="5.88222">
        <ele>1873.746826</ele>
        <time>2010-10-30T10:36:58Z</time>
      </trkpt>
      <trkpt lat="45.34337" lon="5.88222">
        <ele>1872.785645</ele>
        <time>2010-10-30T10:37:06Z</time>
      </trkpt>
      <trkpt lat="45.3434" lon="5.88222">
        <ele>1873.746826</ele>
        <time>2010-10-30T10:37:11Z</time>
      </trkpt>
      <trkpt lat="45.34342" lon="5.88225">
        <ele>1874.708252</ele>
        <time>2010-10-30T10:37:15Z</time>
      </trkpt>
      <trkpt lat="45.34344" lon="5.88226">
        <ele>1876.150146</ele>
        <time>2010-10-30T10:37:20Z</time>
      </trkpt>
      <trkpt lat="45.34346" lon="5.88223">
        <ele>1877.111572</ele>
        <time>2010-10-30T10:37:26Z</time>
      </trkpt>
      <trkpt lat="45.34347" lon="5.8822">
        <ele>1878.553467</ele>
        <time>2010-10-30T10:37:32Z</time>
      </trkpt>
      <trkpt lat="45.34349" lon="5.88222">
        <ele>1881.437256</ele>
        <time>2010-10-30T10:37:41Z</time>
      </trkpt>
      <trkpt lat="45.34351" lon="5.88223">
        <ele>1882.87915</ele>
        <time>2010-10-30T10:37:46Z</time>
      </trkpt>
      <trkpt lat="45.34352" lon="5.88222">
        <ele>1883.359863</ele>
        <time>2010-10-30T10:37:52Z</time>
      </trkpt>
      <trkpt lat="45.34353" lon="5.88218">
        <ele>1883.359863</ele>
        <time>2010-10-30T10:38:01Z</time>
      </trkpt>
      <trkpt lat="45.34351" lon="5.88215">
        <ele>1885.763428</ele>
        <time>2010-10-30T10:38:11Z</time>
      </trkpt>
      <trkpt lat="45.34354" lon="5.88215">
        <ele>1889.12793</ele>
        <time>2010-10-30T10:38:21Z</time>
      </trkpt>
      <trkpt lat="45.34352" lon="5.88215">
        <ele>1896.337891</ele>
        <time>2010-10-30T10:38:43Z</time>
      </trkpt>
      <trkpt lat="45.34352" lon="5.88219">
        <ele>1903.067139</ele>
        <time>2010-10-30T10:38:54Z</time>
      </trkpt>
      <trkpt lat="45.34354" lon="5.8822">
        <ele>1904.028564</ele>
        <time>2010-10-30T10:38:58Z</time>
      </trkpt>
      <trkpt lat="45.34356" lon="5.88221">
        <ele>1903.547852</ele>
        <time>2010-10-30T10:39:03Z</time>
      </trkpt>
      <trkpt lat="45.34359" lon="5.88221">
        <ele>1903.547852</ele>
        <time>2010-10-30T10:39:08Z</time>
      </trkpt>
      <trkpt lat="45.34362" lon="5.88221">
        <ele>1903.067139</ele>
        <time>2010-10-30T10:39:13Z</time>
      </trkpt>
      <trkpt lat="45.34364" lon="5.88221">
        <ele>1902.586426</ele>
        <time>2010-10-30T10:39:21Z</time>
      </trkpt>
      <trkpt lat="45.34365" lon="5.88223">
        <ele>1902.105713</ele>
        <time>2010-10-30T10:39:26Z</time>
      </trkpt>
      <trkpt lat="45.34369" lon="5.88224">
        <ele>1902.586426</ele>
        <time>2010-10-30T10:39:36Z</time>
      </trkpt>
      <trkpt lat="45.34373" lon="5.88223">
        <ele>1902.586426</ele>
        <time>2010-10-30T10:39:47Z</time>
      </trkpt>
      <trkpt lat="45.34379" lon="5.8823">
        <ele>1907.873779</ele>
        <time>2010-10-30T10:39:55Z</time>
      </trkpt>
      <trkpt lat="45.34383" lon="5.88237">
        <ele>1910.757568</ele>
        <time>2010-10-30T10:40:00Z</time>
      </trkpt>
      <trkpt lat="45.34386" lon="5.88239">
        <ele>1909.315674</ele>
        <time>2010-10-30T10:40:05Z</time>
      </trkpt>
      <trkpt lat="45.34391" lon="5.88242">
        <ele>1909.315674</ele>
        <time>2010-10-30T10:40:14Z</time>
      </trkpt>
      <trkpt lat="45.34394" lon="5.88245">
        <ele>1909.315674</ele>
        <time>2010-10-30T10:40:19Z</time>
      </trkpt>
      <trkpt lat="45.34398" lon="5.88247">
        <ele>1908.354248</ele>
        <time>2010-10-30T10:40:26Z</time>
      </trkpt>
      <trkpt lat="45.34401" lon="5.8825">
        <ele>1908.834961</ele>
        <time>2010-10-30T10:40:32Z</time>
      </trkpt>
      <trkpt lat="45.34405" lon="5.88254">
        <ele>1909.315674</ele>
        <time>2010-10-30T10:40:39Z</time>
      </trkpt>
      <trkpt lat="45.34408" lon="5.88256">
        <ele>1910.276855</ele>
        <time>2010-10-30T10:40:44Z</time>
      </trkpt>
      <trkpt lat="45.34412" lon="5.8826">
        <ele>1911.718994</ele>
        <time>2010-10-30T10:40:51Z</time>
      </trkpt>
      <trkpt lat="45.34415" lon="5.88263">
        <ele>1913.160889</ele>
        <time>2010-10-30T10:40:58Z</time>
      </trkpt>
      <trkpt lat="45.34418" lon="5.88266">
        <ele>1914.12207</ele>
        <time>2010-10-30T10:41:03Z</time>
      </trkpt>
      <trkpt lat="45.34418" lon="5.88269">
        <ele>1912.680176</ele>
        <time>2010-10-30T10:41:08Z</time>
      </trkpt>
      <trkpt lat="45.34416" lon="5.88271">
        <ele>1913.160889</ele>
        <time>2010-10-30T10:41:10Z</time>
      </trkpt>
      <trkpt lat="45.34416" lon="5.88275">
        <ele>1913.641357</ele>
        <time>2010-10-30T10:41:14Z</time>
      </trkpt>
      <trkpt lat="45.34421" lon="5.88279">
        <ele>1917.006348</ele>
        <time>2010-10-30T10:41:20Z</time>
      </trkpt>
      <trkpt lat="45.34424" lon="5.88284">
        <ele>1917.486816</ele>
        <time>2010-10-30T10:41:25Z</time>
      </trkpt>
      <trkpt lat="45.34428" lon="5.88287">
        <ele>1917.967529</ele>
        <time>2010-10-30T10:41:31Z</time>
      </trkpt>
      <trkpt lat="45.34431" lon="5.88289">
        <ele>1918.448242</ele>
        <time>2010-10-30T10:41:35Z</time>
      </trkpt>
      <trkpt lat="45.34435" lon="5.88287">
        <ele>1917.967529</ele>
        <time>2010-10-30T10:41:40Z</time>
      </trkpt>
      <trkpt lat="45.34439" lon="5.88283">
        <ele>1917.486816</ele>
        <time>2010-10-30T10:41:45Z</time>
      </trkpt>
      <trkpt lat="45.34441" lon="5.88283">
        <ele>1917.967529</ele>
        <time>2010-10-30T10:41:49Z</time>
      </trkpt>
      <trkpt lat="45.34443" lon="5.88284">
        <ele>1917.967529</ele>
        <time>2010-10-30T10:41:53Z</time>
      </trkpt>
      <trkpt lat="45.34445" lon="5.88285">
        <ele>1917.967529</ele>
        <time>2010-10-30T10:41:56Z</time>
      </trkpt>
      <trkpt lat="45.3445" lon="5.88285">
        <ele>1918.448242</ele>
        <time>2010-10-30T10:42:02Z</time>
      </trkpt>
      <trkpt lat="45.34451" lon="5.88285">
        <ele>1919.409668</ele>
        <time>2010-10-30T10:42:06Z</time>
      </trkpt>
      <trkpt lat="45.34455" lon="5.88287">
        <ele>1918.928955</ele>
        <time>2010-10-30T10:42:11Z</time>
      </trkpt>
      <trkpt lat="45.34457" lon="5.8829">
        <ele>1918.928955</ele>
        <time>2010-10-30T10:42:15Z</time>
      </trkpt>
      <trkpt lat="45.3446" lon="5.8829">
        <ele>1918.928955</ele>
        <time>2010-10-30T10:42:20Z</time>
      </trkpt>
      <trkpt lat="45.34461" lon="5.88292">
        <ele>1918.928955</ele>
        <time>2010-10-30T10:42:28Z</time>
      </trkpt>
      <trkpt lat="45.34458" lon="5.88292">
        <ele>1918.448242</ele>
        <time>2010-10-30T10:42:34Z</time>
      </trkpt>
      <trkpt lat="45.34459" lon="5.88294">
        <ele>1917.006348</ele>
        <time>2010-10-30T10:42:39Z</time>
      </trkpt>
      <trkpt lat="45.3446" lon="5.88294">
        <ele>1916.525635</ele>
        <time>2010-10-30T10:42:43Z</time>
      </trkpt>
      <trkpt lat="45.34462" lon="5.88295">
        <ele>1917.486816</ele>
        <time>2010-10-30T10:42:49Z</time>
      </trkpt>
      <trkpt lat="45.34464" lon="5.88298">
        <ele>1918.928955</ele>
        <time>2010-10-30T10:42:56Z</time>
      </trkpt>
      <trkpt lat="45.34467" lon="5.88301">
        <ele>1919.890137</ele>
        <time>2010-10-30T10:43:07Z</time>
      </trkpt>
      <trkpt lat="45.34468" lon="5.88301">
        <ele>1919.409668</ele>
        <time>2010-10-30T10:43:12Z</time>
      </trkpt>
      <trkpt lat="45.3447" lon="5.88299">
        <ele>1917.967529</ele>
        <time>2010-10-30T10:43:17Z</time>
      </trkpt>
      <trkpt lat="45.34473" lon="5.88293">
        <ele>1913.160889</ele>
        <time>2010-10-30T10:43:28Z</time>
      </trkpt>
      <trkpt lat="45.34474" lon="5.88297">
        <ele>1911.718994</ele>
        <time>2010-10-30T10:43:41Z</time>
      </trkpt>
      <trkpt lat="45.34479" lon="5.88295">
        <ele>1910.757568</ele>
        <time>2010-10-30T10:43:51Z</time>
      </trkpt>
      <trkpt lat="45.3448" lon="5.88293">
        <ele>1911.718994</ele>
        <time>2010-10-30T10:43:56Z</time>
      </trkpt>
      <trkpt lat="45.34483" lon="5.88298">
        <ele>1914.602783</ele>
        <time>2010-10-30T10:44:01Z</time>
      </trkpt>
      <trkpt lat="45.34485" lon="5.88296">
        <ele>1914.602783</ele>
        <time>2010-10-30T10:44:04Z</time>
      </trkpt>
      <trkpt lat="45.34487" lon="5.88294">
        <ele>1914.12207</ele>
        <time>2010-10-30T10:44:06Z</time>
      </trkpt>
      <trkpt lat="45.34491" lon="5.883">
        <ele>1917.967529</ele>
        <time>2010-10-30T10:44:13Z</time>
      </trkpt>
      <trkpt lat="45.34493" lon="5.883">
        <ele>1917.486816</ele>
        <time>2010-10-30T10:44:18Z</time>
      </trkpt>
      <trkpt lat="45.34496" lon="5.88293">
        <ele>1914.12207</ele>
        <time>2010-10-30T10:44:23Z</time>
      </trkpt>
      <trkpt lat="45.345" lon="5.88288">
        <ele>1912.199463</ele>
        <time>2010-10-30T10:44:29Z</time>
      </trkpt>
      <trkpt lat="45.34503" lon="5.88289">
        <ele>1911.238281</ele>
        <time>2010-10-30T10:44:35Z</time>
      </trkpt>
      <trkpt lat="45.34505" lon="5.88291">
        <ele>1909.796143</ele>
        <time>2010-10-30T10:44:40Z</time>
      </trkpt>
      <trkpt lat="45.34508" lon="5.88293">
        <ele>1908.834961</ele>
        <time>2010-10-30T10:44:45Z</time>
      </trkpt>
      <trkpt lat="45.34511" lon="5.88294">
        <ele>1908.354248</ele>
        <time>2010-10-30T10:44:51Z</time>
      </trkpt>
      <trkpt lat="45.34514" lon="5.88295">
        <ele>1908.354248</ele>
        <time>2010-10-30T10:44:58Z</time>
      </trkpt>
      <trkpt lat="45.34516" lon="5.88295">
        <ele>1907.393066</ele>
        <time>2010-10-30T10:45:07Z</time>
      </trkpt>
      <trkpt lat="45.34518" lon="5.88294">
        <ele>1907.393066</ele>
        <time>2010-10-30T10:45:13Z</time>
      </trkpt>
      <trkpt lat="45.34518" lon="5.88298">
        <ele>1907.873779</ele>
        <time>2010-10-30T10:45:18Z</time>
      </trkpt>
      <trkpt lat="45.3452" lon="5.883">
        <ele>1908.354248</ele>
        <time>2010-10-30T10:45:23Z</time>
      </trkpt>
      <trkpt lat="45.34522" lon="5.88305">
        <ele>1909.315674</ele>
        <time>2010-10-30T10:45:28Z</time>
      </trkpt>
      <trkpt lat="45.34522" lon="5.8831">
        <ele>1912.680176</ele>
        <time>2010-10-30T10:45:34Z</time>
      </trkpt>
      <trkpt lat="45.34525" lon="5.88305">
        <ele>1911.718994</ele>
        <time>2010-10-30T10:45:40Z</time>
      </trkpt>
      <trkpt lat="45.34526" lon="5.88303">
        <ele>1910.757568</ele>
        <time>2010-10-30T10:45:50Z</time>
      </trkpt>
      <trkpt lat="45.34529" lon="5.88297">
        <ele>1906.912354</ele>
        <time>2010-10-30T10:45:56Z</time>
      </trkpt>
      <trkpt lat="45.34531" lon="5.88297">
        <ele>1905.950928</ele>
        <time>2010-10-30T10:46:01Z</time>
      </trkpt>
      <trkpt lat="45.34531" lon="5.883">
        <ele>1904.028564</ele>
        <time>2010-10-30T10:46:11Z</time>
      </trkpt>
      <trkpt lat="45.3453" lon="5.88304">
        <ele>1902.105713</ele>
        <time>2010-10-30T10:46:19Z</time>
      </trkpt>
      <trkpt lat="45.34532" lon="5.88306">
        <ele>1901.144531</ele>
        <time>2010-10-30T10:46:29Z</time>
      </trkpt>
      <trkpt lat="45.34532" lon="5.88308">
        <ele>1900.18335</ele>
        <time>2010-10-30T10:46:35Z</time>
      </trkpt>
      <trkpt lat="45.34533" lon="5.88307">
        <ele>1899.702393</ele>
        <time>2010-10-30T10:46:39Z</time>
      </trkpt>
      <trkpt lat="45.34533" lon="5.8831">
        <ele>1899.22168</ele>
        <time>2010-10-30T10:46:45Z</time>
      </trkpt>
      <trkpt lat="45.34534" lon="5.88309">
        <ele>1897.779785</ele>
        <time>2010-10-30T10:46:51Z</time>
      </trkpt>
      <trkpt lat="45.34536" lon="5.88311">
        <ele>1896.818359</ele>
        <time>2010-10-30T10:46:55Z</time>
      </trkpt>
      <trkpt lat="45.34537" lon="5.88314">
        <ele>1896.818359</ele>
        <time>2010-10-30T10:46:59Z</time>
      </trkpt>
      <trkpt lat="45.3454" lon="5.88312">
        <ele>1893.93457</ele>
        <time>2010-10-30T10:47:06Z</time>
      </trkpt>
      <trkpt lat="45.34541" lon="5.8831">
        <ele>1891.53125</ele>
        <time>2010-10-30T10:47:13Z</time>
      </trkpt>
      <trkpt lat="45.34543" lon="5.88312">
        <ele>1891.53125</ele>
        <time>2010-10-30T10:47:17Z</time>
      </trkpt>
      <trkpt lat="45.34546" lon="5.88308">
        <ele>1888.647461</ele>
        <time>2010-10-30T10:47:33Z</time>
      </trkpt>
      <trkpt lat="45.34548" lon="5.88308">
        <ele>1886.724609</ele>
        <time>2010-10-30T10:47:40Z</time>
      </trkpt>
      <trkpt lat="45.34549" lon="5.88312">
        <ele>1885.763428</ele>
        <time>2010-10-30T10:47:45Z</time>
      </trkpt>
      <trkpt lat="45.3455" lon="5.88318">
        <ele>1885.282715</ele>
        <time>2010-10-30T10:47:51Z</time>
      </trkpt>
      <trkpt lat="45.34551" lon="5.88322">
        <ele>1884.802246</ele>
        <time>2010-10-30T10:47:57Z</time>
      </trkpt>
      <trkpt lat="45.34552" lon="5.88324">
        <ele>1884.321533</ele>
        <time>2010-10-30T10:48:03Z</time>
      </trkpt>
      <trkpt lat="45.34554" lon="5.88327">
        <ele>1884.802246</ele>
        <time>2010-10-30T10:48:08Z</time>
      </trkpt>
      <trkpt lat="45.34557" lon="5.88331">
        <ele>1884.802246</ele>
        <time>2010-10-30T10:48:14Z</time>
      </trkpt>
      <trkpt lat="45.3456" lon="5.88335">
        <ele>1885.763428</ele>
        <time>2010-10-30T10:48:21Z</time>
      </trkpt>
      <trkpt lat="45.34562" lon="5.88337">
        <ele>1887.686035</ele>
        <time>2010-10-30T10:48:27Z</time>
      </trkpt>
      <trkpt lat="45.34564" lon="5.8834">
        <ele>1888.166748</ele>
        <time>2010-10-30T10:48:32Z</time>
      </trkpt>
      <trkpt lat="45.34566" lon="5.88342">
        <ele>1888.166748</ele>
        <time>2010-10-30T10:48:38Z</time>
      </trkpt>
      <trkpt lat="45.3457" lon="5.88345">
        <ele>1888.647461</ele>
        <time>2010-10-30T10:48:46Z</time>
      </trkpt>
      <trkpt lat="45.3457" lon="5.88345">
        <ele>1888.166748</ele>
        <time>2010-10-30T10:48:54Z</time>
      </trkpt>
      <trkpt lat="45.34568" lon="5.88345">
        <ele>1887.686035</ele>
        <time>2010-10-30T10:49:06Z</time>
      </trkpt>
      <trkpt lat="45.34566" lon="5.88344">
        <ele>1886.724609</ele>
        <time>2010-10-30T10:49:13Z</time>
      </trkpt>
      <trkpt lat="45.34564" lon="5.88343">
        <ele>1887.686035</ele>
        <time>2010-10-30T10:49:18Z</time>
      </trkpt>
      <trkpt lat="45.34564" lon="5.88342">
        <ele>1888.166748</ele>
        <time>2010-10-30T10:49:24Z</time>
      </trkpt>
      <trkpt lat="45.34564" lon="5.88343">
        <ele>1890.569824</ele>
        <time>2010-10-30T10:49:42Z</time>
      </trkpt>
      <trkpt lat="45.34564" lon="5.88343">
        <ele>1890.569824</ele>
        <time>2010-10-30T10:49:47Z</time>
      </trkpt>
      <trkpt lat="45.34563" lon="5.88345">
        <ele>1890.569824</ele>
        <time>2010-10-30T10:49:53Z</time>
      </trkpt>
      <trkpt lat="45.34564" lon="5.88345">
        <ele>1890.569824</ele>
        <time>2010-10-30T10:50:01Z</time>
      </trkpt>
      <trkpt lat="45.34564" lon="5.88345">
        <ele>1890.569824</ele>
        <time>2010-10-30T10:50:12Z</time>
      </trkpt>
      <trkpt lat="45.34565" lon="5.88345">
        <ele>1890.089355</ele>
        <time>2010-10-30T10:50:45Z</time>
      </trkpt>
      <trkpt lat="45.34565" lon="5.88345">
        <ele>1891.050537</ele>
        <time>2010-10-30T10:50:58Z</time>
      </trkpt>
      <trkpt lat="45.34565" lon="5.88344">
        <ele>1891.050537</ele>
        <time>2010-10-30T10:51:04Z</time>
      </trkpt>
      <trkpt lat="45.34563" lon="5.88342">
        <ele>1890.569824</ele>
        <time>2010-10-30T10:51:12Z</time>
      </trkpt>
      <trkpt lat="45.3456" lon="5.88339">
        <ele>1889.608643</ele>
        <time>2010-10-30T10:51:17Z</time>
      </trkpt>
      <trkpt lat="45.34559" lon="5.88335">
        <ele>1887.686035</ele>
        <time>2010-10-30T10:51:22Z</time>
      </trkpt>
      <trkpt lat="45.34557" lon="5.8833">
        <ele>1885.282715</ele>
        <time>2010-10-30T10:51:28Z</time>
      </trkpt>
      <trkpt lat="45.34557" lon="5.88326">
        <ele>1883.840576</ele>
        <time>2010-10-30T10:51:33Z</time>
      </trkpt>
      <trkpt lat="45.34556" lon="5.88322">
        <ele>1882.398682</ele>
        <time>2010-10-30T10:51:39Z</time>
      </trkpt>
      <trkpt lat="45.34559" lon="5.88321">
        <ele>1881.917969</ele>
        <time>2010-10-30T10:51:45Z</time>
      </trkpt>
      <trkpt lat="45.34561" lon="5.88321">
        <ele>1879.514648</ele>
        <time>2010-10-30T10:51:53Z</time>
      </trkpt>
      <trkpt lat="45.34561" lon="5.88319">
        <ele>1877.111572</ele>
        <time>2010-10-30T10:51:59Z</time>
      </trkpt>
      <trkpt lat="45.3456" lon="5.88317">
        <ele>1876.630859</ele>
        <time>2010-10-30T10:52:08Z</time>
      </trkpt>
      <trkpt lat="45.34559" lon="5.88315">
        <ele>1876.630859</ele>
        <time>2010-10-30T10:52:16Z</time>
      </trkpt>
      <trkpt lat="45.34558" lon="5.88306">
        <ele>1879.995361</ele>
        <time>2010-10-30T10:52:35Z</time>
      </trkpt>
      <trkpt lat="45.34561" lon="5.88302">
        <ele>1879.995361</ele>
        <time>2010-10-30T10:52:39Z</time>
      </trkpt>
      <trkpt lat="45.34565" lon="5.88307">
        <ele>1869.901611</ele>
        <time>2010-10-30T10:53:01Z</time>
      </trkpt>
      <trkpt lat="45.34562" lon="5.88304">
        <ele>1869.421143</ele>
        <time>2010-10-30T10:53:10Z</time>
      </trkpt>
      <trkpt lat="45.34561" lon="5.88301">
        <ele>1868.94043</ele>
        <time>2010-10-30T10:53:15Z</time>
      </trkpt>
      <trkpt lat="45.34557" lon="5.88298">
        <ele>1867.97876</ele>
        <time>2010-10-30T10:53:21Z</time>
      </trkpt>
      <trkpt lat="45.34555" lon="5.88293">
        <ele>1867.97876</ele>
        <time>2010-10-30T10:53:26Z</time>
      </trkpt>
      <trkpt lat="45.34553" lon="5.88288">
        <ele>1867.498047</ele>
        <time>2010-10-30T10:53:30Z</time>
      </trkpt>
      <trkpt lat="45.34553" lon="5.88285">
        <ele>1867.97876</ele>
        <time>2010-10-30T10:53:35Z</time>
      </trkpt>
      <trkpt lat="45.34551" lon="5.8828">
        <ele>1867.97876</ele>
        <time>2010-10-30T10:53:40Z</time>
      </trkpt>
      <trkpt lat="45.34549" lon="5.88277">
        <ele>1867.498047</ele>
        <time>2010-10-30T10:53:45Z</time>
      </trkpt>
      <trkpt lat="45.34547" lon="5.88273">
        <ele>1866.536865</ele>
        <time>2010-10-30T10:53:50Z</time>
      </trkpt>
      <trkpt lat="45.34546" lon="5.8827">
        <ele>1866.056152</ele>
        <time>2010-10-30T10:53:55Z</time>
      </trkpt>
      <trkpt lat="45.34543" lon="5.88268">
        <ele>1864.133545</ele>
        <time>2010-10-30T10:54:00Z</time>
      </trkpt>
      <trkpt lat="45.34542" lon="5.88265">
        <ele>1864.133545</ele>
        <time>2010-10-30T10:54:04Z</time>
      </trkpt>
      <trkpt lat="45.34542" lon="5.88261">
        <ele>1863.652832</ele>
        <time>2010-10-30T10:54:11Z</time>
      </trkpt>
      <trkpt lat="45.34541" lon="5.88259">
        <ele>1864.614258</ele>
        <time>2010-10-30T10:54:16Z</time>
      </trkpt>
      <trkpt lat="45.34538" lon="5.88254">
        <ele>1862.69165</ele>
        <time>2010-10-30T10:54:24Z</time>
      </trkpt>
      <trkpt lat="45.34537" lon="5.8825">
        <ele>1861.249756</ele>
        <time>2010-10-30T10:54:28Z</time>
      </trkpt>
      <trkpt lat="45.34535" lon="5.88248">
        <ele>1859.327148</ele>
        <time>2010-10-30T10:54:32Z</time>
      </trkpt>
      <trkpt lat="45.34532" lon="5.88242">
        <ele>1857.885254</ele>
        <time>2010-10-30T10:54:37Z</time>
      </trkpt>
      <trkpt lat="45.34531" lon="5.88236">
        <ele>1857.404541</ele>
        <time>2010-10-30T10:54:43Z</time>
      </trkpt>
      <trkpt lat="45.34531" lon="5.88232">
        <ele>1857.885254</ele>
        <time>2010-10-30T10:54:47Z</time>
      </trkpt>
      <trkpt lat="45.3453" lon="5.88229">
        <ele>1859.327148</ele>
        <time>2010-10-30T10:54:56Z</time>
      </trkpt>
      <trkpt lat="45.34528" lon="5.88226">
        <ele>1860.28833</ele>
        <time>2010-10-30T10:55:07Z</time>
      </trkpt>
      <trkpt lat="45.34529" lon="5.88227">
        <ele>1857.885254</ele>
        <time>2010-10-30T10:55:22Z</time>
      </trkpt>
      <trkpt lat="45.34527" lon="5.88231">
        <ele>1853.559326</ele>
        <time>2010-10-30T10:56:10Z</time>
      </trkpt>
      <trkpt lat="45.34528" lon="5.88231">
        <ele>1853.559326</ele>
        <time>2010-10-30T10:56:20Z</time>
      </trkpt>
      <trkpt lat="45.34528" lon="5.8823">
        <ele>1855.001221</ele>
        <time>2010-10-30T10:56:39Z</time>
      </trkpt>
      <trkpt lat="45.34527" lon="5.88224">
        <ele>1854.040039</ele>
        <time>2010-10-30T10:56:45Z</time>
      </trkpt>
      <trkpt lat="45.34527" lon="5.8822">
        <ele>1854.040039</ele>
        <time>2010-10-30T10:56:49Z</time>
      </trkpt>
      <trkpt lat="45.34527" lon="5.88218">
        <ele>1852.117188</ele>
        <time>2010-10-30T10:56:55Z</time>
      </trkpt>
      <trkpt lat="45.34526" lon="5.88218">
        <ele>1852.117188</ele>
        <time>2010-10-30T10:57:00Z</time>
      </trkpt>
      <trkpt lat="45.34522" lon="5.88221">
        <ele>1848.271729</ele>
        <time>2010-10-30T10:57:07Z</time>
      </trkpt>
      <trkpt lat="45.34521" lon="5.88216">
        <ele>1849.713867</ele>
        <time>2010-10-30T10:57:11Z</time>
      </trkpt>
      <trkpt lat="45.34521" lon="5.88213">
        <ele>1849.713867</ele>
        <time>2010-10-30T10:57:13Z</time>
      </trkpt>
      <trkpt lat="45.3452" lon="5.88203">
        <ele>1851.636475</ele>
        <time>2010-10-30T10:57:20Z</time>
      </trkpt>
      <trkpt lat="45.34518" lon="5.88198">
        <ele>1849.713867</ele>
        <time>2010-10-30T10:57:27Z</time>
      </trkpt>
      <trkpt lat="45.34517" lon="5.88194">
        <ele>1849.713867</ele>
        <time>2010-10-30T10:57:33Z</time>
      </trkpt>
      <trkpt lat="45.34517" lon="5.88191">
        <ele>1849.713867</ele>
        <time>2010-10-30T10:57:40Z</time>
      </trkpt>
      <trkpt lat="45.34516" lon="5.88191">
        <ele>1848.752441</ele>
        <time>2010-10-30T10:57:51Z</time>
      </trkpt>
      <trkpt lat="45.34518" lon="5.88187">
        <ele>1848.752441</ele>
        <time>2010-10-30T10:57:57Z</time>
      </trkpt>
      <trkpt lat="45.34522" lon="5.88186">
        <ele>1846.829834</ele>
        <time>2010-10-30T10:58:01Z</time>
      </trkpt>
      <trkpt lat="45.34522" lon="5.88183">
        <ele>1844.426514</ele>
        <time>2010-10-30T10:58:05Z</time>
      </trkpt>
      <trkpt lat="45.34523" lon="5.8818">
        <ele>1840.581299</ele>
        <time>2010-10-30T10:58:12Z</time>
      </trkpt>
      <trkpt lat="45.34524" lon="5.88177">
        <ele>1838.658936</ele>
        <time>2010-10-30T10:58:17Z</time>
      </trkpt>
      <trkpt lat="45.34525" lon="5.88176">
        <ele>1836.736084</ele>
        <time>2010-10-30T10:58:22Z</time>
      </trkpt>
      <trkpt lat="45.34526" lon="5.88173">
        <ele>1834.813477</ele>
        <time>2010-10-30T10:58:27Z</time>
      </trkpt>
      <trkpt lat="45.34529" lon="5.88172">
        <ele>1833.371338</ele>
        <time>2010-10-30T10:58:32Z</time>
      </trkpt>
      <trkpt lat="45.34532" lon="5.88171">
        <ele>1831.929443</ele>
        <time>2010-10-30T10:58:38Z</time>
      </trkpt>
      <trkpt lat="45.34534" lon="5.8817">
        <ele>1829.526123</ele>
        <time>2010-10-30T10:58:44Z</time>
      </trkpt>
      <trkpt lat="45.34532" lon="5.88168">
        <ele>1829.04541</ele>
        <time>2010-10-30T10:58:49Z</time>
      </trkpt>
      <trkpt lat="45.34531" lon="5.88163">
        <ele>1827.603516</ele>
        <time>2010-10-30T10:58:55Z</time>
      </trkpt>
      <trkpt lat="45.34529" lon="5.88161">
        <ele>1826.161621</ele>
        <time>2010-10-30T10:59:00Z</time>
      </trkpt>
      <trkpt lat="45.34527" lon="5.88158">
        <ele>1825.200195</ele>
        <time>2010-10-30T10:59:04Z</time>
      </trkpt>
      <trkpt lat="45.34528" lon="5.88155">
        <ele>1823.277832</ele>
        <time>2010-10-30T10:59:11Z</time>
      </trkpt>
      <trkpt lat="45.34531" lon="5.88155">
        <ele>1823.277832</ele>
        <time>2010-10-30T10:59:17Z</time>
      </trkpt>
      <trkpt lat="45.34533" lon="5.88153">
        <ele>1822.797119</ele>
        <time>2010-10-30T10:59:25Z</time>
      </trkpt>
      <trkpt lat="45.34535" lon="5.88151">
        <ele>1822.316406</ele>
        <time>2010-10-30T10:59:30Z</time>
      </trkpt>
      <trkpt lat="45.34534" lon="5.88148">
        <ele>1821.835693</ele>
        <time>2010-10-30T10:59:35Z</time>
      </trkpt>
      <trkpt lat="45.34533" lon="5.88145">
        <ele>1820.874512</ele>
        <time>2010-10-30T10:59:39Z</time>
      </trkpt>
      <trkpt lat="45.34533" lon="5.88139">
        <ele>1817.509521</ele>
        <time>2010-10-30T10:59:46Z</time>
      </trkpt>
      <trkpt lat="45.34537" lon="5.88138">
        <ele>1816.54834</ele>
        <time>2010-10-30T10:59:51Z</time>
      </trkpt>
      <trkpt lat="45.34541" lon="5.88138">
        <ele>1811.741943</ele>
        <time>2010-10-30T10:59:57Z</time>
      </trkpt>
      <trkpt lat="45.34542" lon="5.88137">
        <ele>1813.183838</ele>
        <time>2010-10-30T11:00:02Z</time>
      </trkpt>
      <trkpt lat="45.34543" lon="5.88132">
        <ele>1813.664307</ele>
        <time>2010-10-30T11:00:08Z</time>
      </trkpt>
      <trkpt lat="45.34541" lon="5.88129">
        <ele>1809.338623</ele>
        <time>2010-10-30T11:00:13Z</time>
      </trkpt>
      <trkpt lat="45.34537" lon="5.88129">
        <ele>1804.051514</ele>
        <time>2010-10-30T11:00:21Z</time>
      </trkpt>
      <trkpt lat="45.34535" lon="5.88126">
        <ele>1802.128418</ele>
        <time>2010-10-30T11:00:25Z</time>
      </trkpt>
      <trkpt lat="45.34534" lon="5.88122">
        <ele>1797.802734</ele>
        <time>2010-10-30T11:00:31Z</time>
      </trkpt>
      <trkpt lat="45.34537" lon="5.88122">
        <ele>1799.725342</ele>
        <time>2010-10-30T11:00:37Z</time>
      </trkpt>
      <trkpt lat="45.34537" lon="5.88116">
        <ele>1803.089844</ele>
        <time>2010-10-30T11:00:42Z</time>
      </trkpt>
      <trkpt lat="45.34536" lon="5.88112">
        <ele>1799.725342</ele>
        <time>2010-10-30T11:00:48Z</time>
      </trkpt>
      <trkpt lat="45.34537" lon="5.88106">
        <ele>1793.95752</ele>
        <time>2010-10-30T11:01:02Z</time>
      </trkpt>
      <trkpt lat="45.34536" lon="5.88102">
        <ele>1790.112305</ele>
        <time>2010-10-30T11:01:07Z</time>
      </trkpt>
      <trkpt lat="45.34533" lon="5.88099">
        <ele>1786.266846</ele>
        <time>2010-10-30T11:01:13Z</time>
      </trkpt>
      <trkpt lat="45.34533" lon="5.88097">
        <ele>1783.382812</ele>
        <time>2010-10-30T11:01:18Z</time>
      </trkpt>
      <trkpt lat="45.34533" lon="5.88095">
        <ele>1781.460205</ele>
        <time>2010-10-30T11:01:23Z</time>
      </trkpt>
      <trkpt lat="45.34535" lon="5.88095">
        <ele>1781.940918</ele>
        <time>2010-10-30T11:01:28Z</time>
      </trkpt>
      <trkpt lat="45.34538" lon="5.88095">
        <ele>1783.863525</ele>
        <time>2010-10-30T11:01:34Z</time>
      </trkpt>
      <trkpt lat="45.34541" lon="5.88093">
        <ele>1781.460205</ele>
        <time>2010-10-30T11:01:42Z</time>
      </trkpt>
      <trkpt lat="45.34542" lon="5.88091">
        <ele>1777.61499</ele>
        <time>2010-10-30T11:01:49Z</time>
      </trkpt>
      <trkpt lat="45.34539" lon="5.88089">
        <ele>1773.289307</ele>
        <time>2010-10-30T11:01:55Z</time>
      </trkpt>
      <trkpt lat="45.34536" lon="5.88088">
        <ele>1773.769775</ele>
        <time>2010-10-30T11:02:00Z</time>
      </trkpt>
      <trkpt lat="45.34535" lon="5.88087">
        <ele>1773.289307</ele>
        <time>2010-10-30T11:02:05Z</time>
      </trkpt>
      <trkpt lat="45.34534" lon="5.88084">
        <ele>1778.095703</ele>
        <time>2010-10-30T11:02:11Z</time>
      </trkpt>
      <trkpt lat="45.34533" lon="5.88082">
        <ele>1780.018311</ele>
        <time>2010-10-30T11:02:15Z</time>
      </trkpt>
      <trkpt lat="45.34531" lon="5.88078">
        <ele>1780.499023</ele>
        <time>2010-10-30T11:02:21Z</time>
      </trkpt>
      <trkpt lat="45.34529" lon="5.88074">
        <ele>1780.979736</ele>
        <time>2010-10-30T11:02:25Z</time>
      </trkpt>
      <trkpt lat="45.34528" lon="5.88073">
        <ele>1782.421631</ele>
        <time>2010-10-30T11:02:30Z</time>
      </trkpt>
      <trkpt lat="45.34526" lon="5.88075">
        <ele>1784.344238</ele>
        <time>2010-10-30T11:02:39Z</time>
      </trkpt>
      <trkpt lat="45.34523" lon="5.88075">
        <ele>1785.30542</ele>
        <time>2010-10-30T11:02:43Z</time>
      </trkpt>
      <trkpt lat="45.34521" lon="5.88075">
        <ele>1784.824951</ele>
        <time>2010-10-30T11:02:47Z</time>
      </trkpt>
      <trkpt lat="45.34519" lon="5.88074">
        <ele>1784.344238</ele>
        <time>2010-10-30T11:02:51Z</time>
      </trkpt>
      <trkpt lat="45.34516" lon="5.88073">
        <ele>1782.9021</ele>
        <time>2010-10-30T11:02:55Z</time>
      </trkpt>
      <trkpt lat="45.34515" lon="5.88072">
        <ele>1784.344238</ele>
        <time>2010-10-30T11:03:02Z</time>
      </trkpt>
      <trkpt lat="45.3451" lon="5.88073">
        <ele>1788.67041</ele>
        <time>2010-10-30T11:03:21Z</time>
      </trkpt>
      <trkpt lat="45.34512" lon="5.88068">
        <ele>1786.747314</ele>
        <time>2010-10-30T11:03:24Z</time>
      </trkpt>
      <trkpt lat="45.34515" lon="5.88065">
        <ele>1789.631592</ele>
        <time>2010-10-30T11:03:30Z</time>
      </trkpt>
      <trkpt lat="45.3452" lon="5.88053">
        <ele>1800.686523</ele>
        <time>2010-10-30T11:03:59Z</time>
      </trkpt>
      <trkpt lat="45.34518" lon="5.88054">
        <ele>1794.918701</ele>
        <time>2010-10-30T11:04:13Z</time>
      </trkpt>
      <trkpt lat="45.34517" lon="5.88051">
        <ele>1793.95752</ele>
        <time>2010-10-30T11:04:18Z</time>
      </trkpt>
      <trkpt lat="45.3452" lon="5.88049">
        <ele>1799.244629</ele>
        <time>2010-10-30T11:04:25Z</time>
      </trkpt>
      <trkpt lat="45.34524" lon="5.88049">
        <ele>1800.206055</ele>
        <time>2010-10-30T11:04:29Z</time>
      </trkpt>
      <trkpt lat="45.34527" lon="5.88047">
        <ele>1797.322021</ele>
        <time>2010-10-30T11:04:37Z</time>
      </trkpt>
      <trkpt lat="45.34529" lon="5.88044">
        <ele>1792.515625</ele>
        <time>2010-10-30T11:04:41Z</time>
      </trkpt>
      <trkpt lat="45.3453" lon="5.88043">
        <ele>1780.979736</ele>
        <time>2010-10-30T11:04:46Z</time>
      </trkpt>
      <trkpt lat="45.34529" lon="5.8804">
        <ele>1770.885742</ele>
        <time>2010-10-30T11:04:52Z</time>
      </trkpt>
      <trkpt lat="45.34528" lon="5.88037">
        <ele>1767.520996</ele>
        <time>2010-10-30T11:04:56Z</time>
      </trkpt>
      <trkpt lat="45.34526" lon="5.8803">
        <ele>1762.233887</ele>
        <time>2010-10-30T11:05:03Z</time>
      </trkpt>
      <trkpt lat="45.34528" lon="5.88027">
        <ele>1758.869385</ele>
        <time>2010-10-30T11:05:08Z</time>
      </trkpt>
      <trkpt lat="45.34531" lon="5.88025">
        <ele>1757.908203</ele>
        <time>2010-10-30T11:05:12Z</time>
      </trkpt>
      <trkpt lat="45.34533" lon="5.88022">
        <ele>1759.350098</ele>
        <time>2010-10-30T11:05:15Z</time>
      </trkpt>
      <trkpt lat="45.34537" lon="5.88017">
        <ele>1758.869385</ele>
        <time>2010-10-30T11:05:21Z</time>
      </trkpt>
      <trkpt lat="45.34541" lon="5.88014">
        <ele>1758.388672</ele>
        <time>2010-10-30T11:05:26Z</time>
      </trkpt>
      <trkpt lat="45.34545" lon="5.88015">
        <ele>1757.42749</ele>
        <time>2010-10-30T11:05:31Z</time>
      </trkpt>
      <trkpt lat="45.34548" lon="5.88015">
        <ele>1760.311279</ele>
        <time>2010-10-30T11:05:36Z</time>
      </trkpt>
      <trkpt lat="45.34554" lon="5.88017">
        <ele>1760.791992</ele>
        <time>2010-10-30T11:05:43Z</time>
      </trkpt>
      <trkpt lat="45.34559" lon="5.88014">
        <ele>1759.830566</ele>
        <time>2010-10-30T11:05:49Z</time>
      </trkpt>
      <trkpt lat="45.34567" lon="5.88008">
        <ele>1760.311279</ele>
        <time>2010-10-30T11:05:57Z</time>
      </trkpt>
      <trkpt lat="45.34572" lon="5.88001">
        <ele>1760.311279</ele>
        <time>2010-10-30T11:06:03Z</time>
      </trkpt>
      <trkpt lat="45.34575" lon="5.87997">
        <ele>1761.753418</ele>
        <time>2010-10-30T11:06:07Z</time>
      </trkpt>
      <trkpt lat="45.34579" lon="5.87993">
        <ele>1760.791992</ele>
        <time>2010-10-30T11:06:11Z</time>
      </trkpt>
      <trkpt lat="45.34586" lon="5.8799">
        <ele>1763.195312</ele>
        <time>2010-10-30T11:06:18Z</time>
      </trkpt>
      <trkpt lat="45.34593" lon="5.87988">
        <ele>1761.272705</ele>
        <time>2010-10-30T11:06:25Z</time>
      </trkpt>
      <trkpt lat="45.346" lon="5.87987">
        <ele>1760.791992</ele>
        <time>2010-10-30T11:06:31Z</time>
      </trkpt>
      <trkpt lat="45.34603" lon="5.87986">
        <ele>1759.830566</ele>
        <time>2010-10-30T11:06:37Z</time>
      </trkpt>
      <trkpt lat="45.34605" lon="5.87987">
        <ele>1763.195312</ele>
        <time>2010-10-30T11:06:46Z</time>
      </trkpt>
      <trkpt lat="45.34609" lon="5.87988">
        <ele>1763.675781</ele>
        <time>2010-10-30T11:06:51Z</time>
      </trkpt>
      <trkpt lat="45.34613" lon="5.87987">
        <ele>1762.233887</ele>
        <time>2010-10-30T11:06:57Z</time>
      </trkpt>
      <trkpt lat="45.34617" lon="5.87986">
        <ele>1761.272705</ele>
        <time>2010-10-30T11:07:02Z</time>
      </trkpt>
      <trkpt lat="45.34622" lon="5.87983">
        <ele>1760.791992</ele>
        <time>2010-10-30T11:07:08Z</time>
      </trkpt>
      <trkpt lat="45.34628" lon="5.87981">
        <ele>1759.350098</ele>
        <time>2010-10-30T11:07:14Z</time>
      </trkpt>
      <trkpt lat="45.34634" lon="5.87982">
        <ele>1758.388672</ele>
        <time>2010-10-30T11:07:20Z</time>
      </trkpt>
    </trkseg>
  </trk>
</gpx>